sensor_id;sensor_type;location;lat;lon;timestamp;temperature;humidity
15095;DHT22;7648;52.264;9.632;2022-11-23T00:02:30;5.70;99.90
15095;DHT22;7648;52.264;9.632;2022-11-23T00:06:32;5.60;99.90
15095;DHT22;7648;52.264;9.632;2022-11-23T00:10:34;5.50;99.90
15095;DHT22;7648;52.264;9.632;2022-11-23T00:14:38;5.50;99.90
15095;DHT22;7648;52.264;9.632;2022-11-23T00:18:40;5.40;99.90
15095;DHT22;7648;52.264;9.632;2022-11-23T00:22:42;5.40;99.90
15095;DHT22;7648;52.264;9.632;2022-11-23T00:26:44;5.30;99.90
15095;DHT22;7648;52.264;9.632;2022-11-23T00:30:49;5.30;99.90
15095;DHT22;7648;52.264;9.632;2022-11-23T00:34:51;5.30;99.90
15095;DHT22;7648;52.264;9.632;2022-11-23T00:38:53;5.30;99.90
15095;DHT22;7648;52.264;9.632;2022-11-23T00:42:57;5.30;99.90
15095;DHT22;7648;52.264;9.632;2022-11-23T00:47:00;5.30;99.90
15095;DHT22;7648;52.264;9.632;2022-11-23T00:51:03;5.30;99.90
15095;DHT22;7648;52.264;9.632;2022-11-23T00:55:07;5.20;99.90
15095;DHT22;7648;52.264;9.632;2022-11-23T00:59:09;5.20;99.90
15095;DHT22;7648;52.264;9.632;2022-11-23T01:03:13;5.30;99.90
15095;DHT22;7648;52.264;9.632;2022-11-23T01:07:15;5.20;99.90
15095;DHT22;7648;52.264;9.632;2022-11-23T01:11:18;5.20;99.90
15095;DHT22;7648;52.264;9.632;2022-11-23T01:15:20;5.20;99.90
15095;DHT22;7648;52.264;9.632;2022-11-23T01:19:24;5.20;99.90
15095;DHT22;7648;52.264;9.632;2022-11-23T01:23:27;5.20;99.90
15095;DHT22;7648;52.264;9.632;2022-11-23T01:27:29;5.20;99.90
15095;DHT22;7648;52.264;9.632;2022-11-23T01:31:33;5.20;99.90
15095;DHT22;7648;52.264;9.632;2022-11-23T01:35:36;5.20;99.90
15095;DHT22;7648;52.264;9.632;2022-11-23T01:39:38;5.20;99.90
15095;DHT22;7648;52.264;9.632;2022-11-23T01:43:40;5.20;99.90
15095;DHT22;7648;52.264;9.632;2022-11-23T01:47:42;5.10;99.90
15095;DHT22;7648;52.264;9.632;2022-11-23T01:51:48;5.10;99.90
15095;DHT22;7648;52.264;9.632;2022-11-23T01:55:51;5.00;99.90
15095;DHT22;7648;52.264;9.632;2022-11-23T01:59:55;5.00;99.90
15095;DHT22;7648;52.264;9.632;2022-11-23T02:03:59;5.00;99.90
15095;DHT22;7648;52.264;9.632;2022-11-23T02:08:03;5.00;99.90
15095;DHT22;7648;52.264;9.632;2022-11-23T02:12:09;4.90;99.90
15095;DHT22;7648;52.264;9.632;2022-11-23T02:16:12;4.90;99.90
15095;DHT22;7648;52.264;9.632;2022-11-23T02:20:16;5.00;99.90
15095;DHT22;7648;52.264;9.632;2022-11-23T02:24:25;5.00;99.90
15095;DHT22;7648;52.264;9.632;2022-11-23T02:28:32;5.00;99.90
15095;DHT22;7648;52.264;9.632;2022-11-23T02:32:35;5.00;99.90
15095;DHT22;7648;52.264;9.632;2022-11-23T02:36:39;5.10;99.90
15095;DHT22;7648;52.264;9.632;2022-11-23T02:40:42;5.20;99.90
15095;DHT22;7648;52.264;9.632;2022-11-23T02:44:49;5.20;99.90
15095;DHT22;7648;52.264;9.632;2022-11-23T02:48:52;5.30;99.90
15095;DHT22;7648;52.264;9.632;2022-11-23T02:52:54;5.40;99.90
15095;DHT22;7648;52.264;9.632;2022-11-23T02:56:56;5.50;99.90
15095;DHT22;7648;52.264;9.632;2022-11-23T03:00:59;5.50;99.90
15095;DHT22;7648;52.264;9.632;2022-11-23T03:05:01;5.60;99.90
15095;DHT22;7648;52.264;9.632;2022-11-23T03:09:03;5.60;99.90
15095;DHT22;7648;52.264;9.632;2022-11-23T03:13:05;5.60;99.90
15095;DHT22;7648;52.264;9.632;2022-11-23T03:17:11;5.60;99.90
15095;DHT22;7648;52.264;9.632;2022-11-23T03:21:15;5.70;99.90
15095;DHT22;7648;52.264;9.632;2022-11-23T03:25:17;5.70;99.90
15095;DHT22;7648;52.264;9.632;2022-11-23T03:29:23;5.60;99.90
15095;DHT22;7648;52.264;9.632;2022-11-23T03:33:29;5.60;99.90
15095;DHT22;7648;52.264;9.632;2022-11-23T03:37:31;5.60;99.90
15095;DHT22;7648;52.264;9.632;2022-11-23T03:41:34;5.60;99.90
15095;DHT22;7648;52.264;9.632;2022-11-23T03:45:35;5.60;99.90
15095;DHT22;7648;52.264;9.632;2022-11-23T03:49:39;5.50;99.90
15095;DHT22;7648;52.264;9.632;2022-11-23T03:53:43;5.50;99.90
15095;DHT22;7648;52.264;9.632;2022-11-23T03:57:46;5.50;99.90
15095;DHT22;7648;52.264;9.632;2022-11-23T04:01:49;5.50;99.90
15095;DHT22;7648;52.264;9.632;2022-11-23T04:05:57;5.50;99.90
15095;DHT22;7648;52.264;9.632;2022-11-23T04:10:29;5.50;99.90
15095;DHT22;7648;52.264;9.632;2022-11-23T04:15:00;5.60;99.90
15095;DHT22;7648;52.264;9.632;2022-11-23T04:19:02;5.70;99.90
15095;DHT22;7648;52.264;9.632;2022-11-23T04:23:06;5.80;99.90
15095;DHT22;7648;52.264;9.632;2022-11-23T04:27:08;5.90;99.90
15095;DHT22;7648;52.264;9.632;2022-11-23T04:31:11;5.90;99.90
15095;DHT22;7648;52.264;9.632;2022-11-23T04:35:27;5.90;99.90
15095;DHT22;7648;52.264;9.632;2022-11-23T04:39:31;5.90;99.90
15095;DHT22;7648;52.264;9.632;2022-11-23T04:43:54;5.90;99.90
15095;DHT22;7648;52.264;9.632;2022-11-23T04:47:57;5.90;99.90
15095;DHT22;7648;52.264;9.632;2022-11-23T04:52:02;5.90;99.90
15095;DHT22;7648;52.264;9.632;2022-11-23T04:56:11;5.80;99.90
15095;DHT22;7648;52.264;9.632;2022-11-23T05:00:16;5.80;99.90
15095;DHT22;7648;52.264;9.632;2022-11-23T05:04:21;5.80;99.90
15095;DHT22;7648;52.264;9.632;2022-11-23T05:08:24;5.80;99.90
15095;DHT22;7648;52.264;9.632;2022-11-23T05:12:51;5.80;99.90
15095;DHT22;7648;52.264;9.632;2022-11-23T05:16:53;5.80;99.90
15095;DHT22;7648;52.264;9.632;2022-11-23T05:20:55;5.90;99.90
15095;DHT22;7648;52.264;9.632;2022-11-23T05:24:57;5.90;99.90
15095;DHT22;7648;52.264;9.632;2022-11-23T05:29:01;6.00;99.90
15095;DHT22;7648;52.264;9.632;2022-11-23T05:33:05;6.00;99.90
15095;DHT22;7648;52.264;9.632;2022-11-23T05:37:07;6.20;99.90
15095;DHT22;7648;52.264;9.632;2022-11-23T05:41:15;6.20;99.90
15095;DHT22;7648;52.264;9.632;2022-11-23T05:45:19;6.30;99.90
15095;DHT22;7648;52.264;9.632;2022-11-23T05:49:25;6.30;99.90
15095;DHT22;7648;52.264;9.632;2022-11-23T05:53:28;6.30;99.90
15095;DHT22;7648;52.264;9.632;2022-11-23T05:57:42;6.40;99.90
15095;DHT22;7648;52.264;9.632;2022-11-23T06:01:46;6.40;99.90
15095;DHT22;7648;52.264;9.632;2022-11-23T06:05:56;6.40;99.90
15095;DHT22;7648;52.264;9.632;2022-11-23T06:10:06;6.30;99.90
15095;DHT22;7648;52.264;9.632;2022-11-23T06:14:12;6.30;99.90
15095;DHT22;7648;52.264;9.632;2022-11-23T06:18:15;6.20;99.90
15095;DHT22;7648;52.264;9.632;2022-11-23T06:22:22;6.10;99.90
15095;DHT22;7648;52.264;9.632;2022-11-23T06:26:32;6.10;99.90
15095;DHT22;7648;52.264;9.632;2022-11-23T06:30:34;6.00;99.90
15095;DHT22;7648;52.264;9.632;2022-11-23T06:34:42;5.90;99.90
15095;DHT22;7648;52.264;9.632;2022-11-23T06:38:44;5.80;99.90
15095;DHT22;7648;52.264;9.632;2022-11-23T06:42:57;5.70;99.90
15095;DHT22;7648;52.264;9.632;2022-11-23T06:47:06;5.60;99.90
15095;DHT22;7648;52.264;9.632;2022-11-23T06:51:09;5.50;99.90
15095;DHT22;7648;52.264;9.632;2022-11-23T06:55:12;5.40;99.90
15095;DHT22;7648;52.264;9.632;2022-11-23T06:59:14;5.30;99.90
15095;DHT22;7648;52.264;9.632;2022-11-23T07:03:19;5.30;99.90
15095;DHT22;7648;52.264;9.632;2022-11-23T07:07:28;5.20;99.90
15095;DHT22;7648;52.264;9.632;2022-11-23T07:11:38;5.20;99.90
15095;DHT22;7648;52.264;9.632;2022-11-23T07:15:41;5.30;99.90
15095;DHT22;7648;52.264;9.632;2022-11-23T07:19:44;5.40;99.90
15095;DHT22;7648;52.264;9.632;2022-11-23T07:23:48;5.60;99.90
15095;DHT22;7648;52.264;9.632;2022-11-23T07:27:54;5.70;99.90
15095;DHT22;7648;52.264;9.632;2022-11-23T07:31:56;5.90;99.90
15095;DHT22;7648;52.264;9.632;2022-11-23T07:36:00;6.10;99.90
15095;DHT22;7648;52.264;9.632;2022-11-23T07:40:05;6.20;99.90
15095;DHT22;7648;52.264;9.632;2022-11-23T07:44:09;6.30;99.90
15095;DHT22;7648;52.264;9.632;2022-11-23T07:48:11;6.30;99.90
15095;DHT22;7648;52.264;9.632;2022-11-23T07:52:13;6.30;99.90
15095;DHT22;7648;52.264;9.632;2022-11-23T07:56:16;6.40;99.90
15095;DHT22;7648;52.264;9.632;2022-11-23T08:00:19;6.40;99.90
15095;DHT22;7648;52.264;9.632;2022-11-23T08:04:21;6.50;99.90
15095;DHT22;7648;52.264;9.632;2022-11-23T08:08:23;6.50;99.90
15095;DHT22;7648;52.264;9.632;2022-11-23T08:12:26;6.60;99.90
15095;DHT22;7648;52.264;9.632;2022-11-23T08:16:28;6.60;99.90
15095;DHT22;7648;52.264;9.632;2022-11-23T08:20:31;6.60;99.90
15095;DHT22;7648;52.264;9.632;2022-11-23T08:24:34;6.60;99.90
15095;DHT22;7648;52.264;9.632;2022-11-23T08:28:37;6.60;99.90
15095;DHT22;7648;52.264;9.632;2022-11-23T08:32:39;6.70;99.90
15095;DHT22;7648;52.264;9.632;2022-11-23T08:36:41;6.80;99.90
15095;DHT22;7648;52.264;9.632;2022-11-23T08:40:43;6.90;99.90
15095;DHT22;7648;52.264;9.632;2022-11-23T08:44:46;7.00;99.90
15095;DHT22;7648;52.264;9.632;2022-11-23T08:48:48;7.10;99.90
15095;DHT22;7648;52.264;9.632;2022-11-23T08:52:54;7.20;99.90
15095;DHT22;7648;52.264;9.632;2022-11-23T08:56:56;7.40;99.90
15095;DHT22;7648;52.264;9.632;2022-11-23T09:00:59;7.50;99.90
15095;DHT22;7648;52.264;9.632;2022-11-23T09:05:01;7.60;99.90
15095;DHT22;7648;52.264;9.632;2022-11-23T09:09:04;7.60;99.90
15095;DHT22;7648;52.264;9.632;2022-11-23T09:13:06;7.70;99.90
15095;DHT22;7648;52.264;9.632;2022-11-23T09:17:10;7.70;99.90
15095;DHT22;7648;52.264;9.632;2022-11-23T09:21:12;7.80;99.90
15095;DHT22;7648;52.264;9.632;2022-11-23T09:25:14;7.90;99.90
15095;DHT22;7648;52.264;9.632;2022-11-23T09:29:16;8.00;99.90
15095;DHT22;7648;52.264;9.632;2022-11-23T09:33:20;8.10;99.90
15095;DHT22;7648;52.264;9.632;2022-11-23T09:37:22;8.20;99.90
15095;DHT22;7648;52.264;9.632;2022-11-23T09:46:02;8.40;99.90
15095;DHT22;7648;52.264;9.632;2022-11-23T09:50:12;8.50;99.90
15095;DHT22;7648;52.264;9.632;2022-11-23T09:54:24;8.60;99.90
15095;DHT22;7648;52.264;9.632;2022-11-23T09:58:30;8.60;99.90
15095;DHT22;7648;52.264;9.632;2022-11-23T10:02:38;8.70;99.90
15095;DHT22;7648;52.264;9.632;2022-11-23T10:06:42;8.70;99.90
15095;DHT22;7648;52.264;9.632;2022-11-23T10:10:51;8.80;99.90
15095;DHT22;7648;52.264;9.632;2022-11-23T10:15:02;9.00;99.90
15095;DHT22;7648;52.264;9.632;2022-11-23T10:19:11;9.20;99.90
15095;DHT22;7648;52.264;9.632;2022-11-23T10:23:45;9.40;99.90
15095;DHT22;7648;52.264;9.632;2022-11-23T10:27:52;9.50;99.90
15095;DHT22;7648;52.264;9.632;2022-11-23T10:31:56;9.60;99.90
15095;DHT22;7648;52.264;9.632;2022-11-23T10:35:58;9.60;99.90
15095;DHT22;7648;52.264;9.632;2022-11-23T10:40:02;9.60;99.90
15095;DHT22;7648;52.264;9.632;2022-11-23T10:44:11;9.70;99.90
15095;DHT22;7648;52.264;9.632;2022-11-23T10:48:32;9.70;99.90
15095;DHT22;7648;52.264;9.632;2022-11-23T10:52:35;9.80;99.90
15095;DHT22;7648;52.264;9.632;2022-11-23T10:56:44;9.90;99.90
15095;DHT22;7648;52.264;9.632;2022-11-23T11:00:58;9.90;99.90
15095;DHT22;7648;52.264;9.632;2022-11-23T11:05:25;9.90;99.90
15095;DHT22;7648;52.264;9.632;2022-11-23T11:09:27;9.90;99.90
15095;DHT22;7648;52.264;9.632;2022-11-23T11:13:32;9.90;99.90
15095;DHT22;7648;52.264;9.632;2022-11-23T11:17:40;9.90;99.90
15095;DHT22;7648;52.264;9.632;2022-11-23T11:21:42;9.90;99.90
15095;DHT22;7648;52.264;9.632;2022-11-23T11:25:46;10.00;99.90
15095;DHT22;7648;52.264;9.632;2022-11-23T11:29:52;10.10;99.90
15095;DHT22;7648;52.264;9.632;2022-11-23T11:34:00;10.10;99.90
15095;DHT22;7648;52.264;9.632;2022-11-23T11:38:11;10.00;99.90
15095;DHT22;7648;52.264;9.632;2022-11-23T11:42:18;10.00;99.90
15095;DHT22;7648;52.264;9.632;2022-11-23T11:46:28;10.00;99.90
15095;DHT22;7648;52.264;9.632;2022-11-23T11:50:36;10.10;99.90
15095;DHT22;7648;52.264;9.632;2022-11-23T11:54:45;10.00;99.90
15095;DHT22;7648;52.264;9.632;2022-11-23T11:58:54;10.00;99.90
15095;DHT22;7648;52.264;9.632;2022-11-23T12:03:05;10.10;99.90
15095;DHT22;7648;52.264;9.632;2022-11-23T12:07:15;10.10;99.90
15095;DHT22;7648;52.264;9.632;2022-11-23T12:11:18;10.10;99.90
15095;DHT22;7648;52.264;9.632;2022-11-23T12:15:24;10.20;99.90
15095;DHT22;7648;52.264;9.632;2022-11-23T12:19:33;10.30;99.90
15095;DHT22;7648;52.264;9.632;2022-11-23T12:23:47;10.40;99.90
15095;DHT22;7648;52.264;9.632;2022-11-23T12:28:13;10.40;99.90
15095;DHT22;7648;52.264;9.632;2022-11-23T12:32:27;10.30;99.90
15095;DHT22;7648;52.264;9.632;2022-11-23T12:36:44;10.20;99.90
15095;DHT22;7648;52.264;9.632;2022-11-23T12:41:13;10.10;99.90
15095;DHT22;7648;52.264;9.632;2022-11-23T12:49:49;10.00;99.90
15095;DHT22;7648;52.264;9.632;2022-11-23T12:54:03;9.80;99.90
15095;DHT22;7648;52.264;9.632;2022-11-23T12:58:14;9.80;99.90
15095;DHT22;7648;52.264;9.632;2022-11-23T13:07:37;9.80;99.90
15095;DHT22;7648;52.264;9.632;2022-11-23T13:12:04;9.80;99.90
15095;DHT22;7648;52.264;9.632;2022-11-23T13:16:24;9.80;99.90
15095;DHT22;7648;52.264;9.632;2022-11-23T13:20:40;9.80;99.90
15095;DHT22;7648;52.264;9.632;2022-11-23T13:25:14;9.90;99.90
15095;DHT22;7648;52.264;9.632;2022-11-23T13:29:54;9.90;99.90
15095;DHT22;7648;52.264;9.632;2022-11-23T13:33:59;9.90;99.90
15095;DHT22;7648;52.264;9.632;2022-11-23T13:38:24;9.80;99.90
15095;DHT22;7648;52.264;9.632;2022-11-23T13:42:30;9.80;99.90
15095;DHT22;7648;52.264;9.632;2022-11-23T13:46:35;9.70;99.90
15095;DHT22;7648;52.264;9.632;2022-11-23T13:50:39;9.60;99.90
15095;DHT22;7648;52.264;9.632;2022-11-23T13:54:59;9.50;99.90
15095;DHT22;7648;52.264;9.632;2022-11-23T13:59:26;9.40;99.90
15095;DHT22;7648;52.264;9.632;2022-11-23T14:03:51;9.30;99.90
15095;DHT22;7648;52.264;9.632;2022-11-23T14:07:56;9.30;99.90
15095;DHT22;7648;52.264;9.632;2022-11-23T14:12:12;9.20;99.90
15095;DHT22;7648;52.264;9.632;2022-11-23T14:16:31;9.20;99.90
15095;DHT22;7648;52.264;9.632;2022-11-23T14:20:51;9.20;99.90
15095;DHT22;7648;52.264;9.632;2022-11-23T14:25:10;9.20;99.90
15095;DHT22;7648;52.264;9.632;2022-11-23T14:29:26;9.10;99.90
15095;DHT22;7648;52.264;9.632;2022-11-23T14:33:35;9.00;99.90
15095;DHT22;7648;52.264;9.632;2022-11-23T14:37:52;9.00;99.90
15095;DHT22;7648;52.264;9.632;2022-11-23T14:41:59;8.90;99.90
15095;DHT22;7648;52.264;9.632;2022-11-23T14:46:04;8.90;99.90
15095;DHT22;7648;52.264;9.632;2022-11-23T14:50:19;8.80;99.90
15095;DHT22;7648;52.264;9.632;2022-11-23T14:54:23;8.70;99.90
15095;DHT22;7648;52.264;9.632;2022-11-23T14:58:29;8.70;99.90
15095;DHT22;7648;52.264;9.632;2022-11-23T15:02:34;8.60;99.90
15095;DHT22;7648;52.264;9.632;2022-11-23T15:06:40;8.50;99.90
15095;DHT22;7648;52.264;9.632;2022-11-23T15:10:48;8.40;99.90
15095;DHT22;7648;52.264;9.632;2022-11-23T15:14:54;8.30;99.90
15095;DHT22;7648;52.264;9.632;2022-11-23T15:18:56;8.10;99.90
15095;DHT22;7648;52.264;9.632;2022-11-23T15:22:59;8.10;99.90
15095;DHT22;7648;52.264;9.632;2022-11-23T15:27:04;8.00;99.90
15095;DHT22;7648;52.264;9.632;2022-11-23T15:31:26;7.90;99.90
15095;DHT22;7648;52.264;9.632;2022-11-23T15:35:30;8.00;99.90
15095;DHT22;7648;52.264;9.632;2022-11-23T15:39:33;8.00;99.90
15095;DHT22;7648;52.264;9.632;2022-11-23T15:43:50;7.90;99.90
15095;DHT22;7648;52.264;9.632;2022-11-23T15:47:52;7.90;99.90
15095;DHT22;7648;52.264;9.632;2022-11-23T15:51:58;7.90;99.90
15095;DHT22;7648;52.264;9.632;2022-11-23T15:56:03;7.90;99.90
15095;DHT22;7648;52.264;9.632;2022-11-23T16:00:17;7.80;99.90
15095;DHT22;7648;52.264;9.632;2022-11-23T16:04:25;7.80;99.90
15095;DHT22;7648;52.264;9.632;2022-11-23T16:08:28;7.70;99.90
15095;DHT22;7648;52.264;9.632;2022-11-23T16:12:45;7.60;99.90
15095;DHT22;7648;52.264;9.632;2022-11-23T16:17:13;7.60;99.90
15095;DHT22;7648;52.264;9.632;2022-11-23T16:21:18;7.50;99.90
15095;DHT22;7648;52.264;9.632;2022-11-23T16:25:24;7.40;99.90
15095;DHT22;7648;52.264;9.632;2022-11-23T16:29:29;7.20;99.90
15095;DHT22;7648;52.264;9.632;2022-11-23T16:33:34;7.00;99.90
15095;DHT22;7648;52.264;9.632;2022-11-23T16:37:36;6.90;99.90
15095;DHT22;7648;52.264;9.632;2022-11-23T16:41:38;6.90;99.90
15095;DHT22;7648;52.264;9.632;2022-11-23T16:45:42;6.80;99.90
15095;DHT22;7648;52.264;9.632;2022-11-23T16:49:46;6.80;99.90
15095;DHT22;7648;52.264;9.632;2022-11-23T16:53:48;6.80;99.90
15095;DHT22;7648;52.264;9.632;2022-11-23T16:57:50;6.70;99.90
15095;DHT22;7648;52.264;9.632;2022-11-23T17:01:52;6.70;99.90
15095;DHT22;7648;52.264;9.632;2022-11-23T17:05:56;6.50;99.90
15095;DHT22;7648;52.264;9.632;2022-11-23T17:09:57;6.40;99.90
15095;DHT22;7648;52.264;9.632;2022-11-23T17:13:59;6.40;99.90
15095;DHT22;7648;52.264;9.632;2022-11-23T17:18:01;6.30;99.90
15095;DHT22;7648;52.264;9.632;2022-11-23T17:22:05;6.30;99.90
15095;DHT22;7648;52.264;9.632;2022-11-23T17:26:22;6.20;99.90
15095;DHT22;7648;52.264;9.632;2022-11-23T17:30:27;6.10;99.90
15095;DHT22;7648;52.264;9.632;2022-11-23T17:34:29;6.10;99.90
15095;DHT22;7648;52.264;9.632;2022-11-23T17:38:33;6.00;99.90
15095;DHT22;7648;52.264;9.632;2022-11-23T17:42:36;6.00;99.90
15095;DHT22;7648;52.264;9.632;2022-11-23T17:46:38;5.90;99.90
15095;DHT22;7648;52.264;9.632;2022-11-23T17:50:40;5.90;99.90
15095;DHT22;7648;52.264;9.632;2022-11-23T17:54:43;5.90;99.90
15095;DHT22;7648;52.264;9.632;2022-11-23T17:58:45;5.90;99.90
15095;DHT22;7648;52.264;9.632;2022-11-23T18:02:47;5.90;99.90
15095;DHT22;7648;52.264;9.632;2022-11-23T18:06:49;6.00;99.90
15095;DHT22;7648;52.264;9.632;2022-11-23T18:10:53;6.00;99.90
15095;DHT22;7648;52.264;9.632;2022-11-23T18:14:55;6.00;99.90
15095;DHT22;7648;52.264;9.632;2022-11-23T18:18:57;6.00;99.90
15095;DHT22;7648;52.264;9.632;2022-11-23T18:22:58;6.00;99.90
15095;DHT22;7648;52.264;9.632;2022-11-23T18:27:02;6.00;99.90
15095;DHT22;7648;52.264;9.632;2022-11-23T18:31:04;6.00;99.90
15095;DHT22;7648;52.264;9.632;2022-11-23T18:35:07;5.90;99.90
15095;DHT22;7648;52.264;9.632;2022-11-23T18:39:09;5.90;99.90
15095;DHT22;7648;52.264;9.632;2022-11-23T18:43:12;5.90;99.90
15095;DHT22;7648;52.264;9.632;2022-11-23T18:47:14;5.80;99.90
15095;DHT22;7648;52.264;9.632;2022-11-23T18:51:17;5.90;99.90
15095;DHT22;7648;52.264;9.632;2022-11-23T18:55:19;5.80;99.90
15095;DHT22;7648;52.264;9.632;2022-11-23T18:59:22;5.80;99.90
15095;DHT22;7648;52.264;9.632;2022-11-23T19:03:24;5.90;99.90
15095;DHT22;7648;52.264;9.632;2022-11-23T19:07:26;5.80;99.90
15095;DHT22;7648;52.264;9.632;2022-11-23T19:11:28;5.70;99.90
15095;DHT22;7648;52.264;9.632;2022-11-23T19:15:32;5.70;99.90
15095;DHT22;7648;52.264;9.632;2022-11-23T19:19:34;5.80;99.90
15095;DHT22;7648;52.264;9.632;2022-11-23T19:23:37;5.80;99.90
15095;DHT22;7648;52.264;9.632;2022-11-23T19:27:39;5.70;99.90
15095;DHT22;7648;52.264;9.632;2022-11-23T19:31:42;5.80;99.90
15095;DHT22;7648;52.264;9.632;2022-11-23T19:35:44;5.80;99.90
15095;DHT22;7648;52.264;9.632;2022-11-23T19:39:46;5.90;99.90
15095;DHT22;7648;52.264;9.632;2022-11-23T19:43:51;6.00;99.90
15095;DHT22;7648;52.264;9.632;2022-11-23T19:47:54;6.10;99.90
15095;DHT22;7648;52.264;9.632;2022-11-23T19:51:57;6.20;99.90
15095;DHT22;7648;52.264;9.632;2022-11-23T19:56:02;6.20;99.90
15095;DHT22;7648;52.264;9.632;2022-11-23T20:00:05;6.20;99.90
15095;DHT22;7648;52.264;9.632;2022-11-23T20:04:14;6.20;99.90
15095;DHT22;7648;52.264;9.632;2022-11-23T20:08:16;6.20;99.90
15095;DHT22;7648;52.264;9.632;2022-11-23T20:12:18;6.20;99.90
15095;DHT22;7648;52.264;9.632;2022-11-23T20:16:21;6.20;99.90
15095;DHT22;7648;52.264;9.632;2022-11-23T20:20:25;6.30;99.90
15095;DHT22;7648;52.264;9.632;2022-11-23T20:24:27;6.30;99.90
15095;DHT22;7648;52.264;9.632;2022-11-23T20:28:29;6.30;99.90
15095;DHT22;7648;52.264;9.632;2022-11-23T20:32:31;6.40;99.90
15095;DHT22;7648;52.264;9.632;2022-11-23T20:36:36;6.40;99.90
15095;DHT22;7648;52.264;9.632;2022-11-23T20:40:38;6.40;99.90
15095;DHT22;7648;52.264;9.632;2022-11-23T20:44:40;6.40;99.90
15095;DHT22;7648;52.264;9.632;2022-11-23T20:48:43;6.40;99.90
15095;DHT22;7648;52.264;9.632;2022-11-23T20:52:47;6.40;99.90
15095;DHT22;7648;52.264;9.632;2022-11-23T20:56:49;6.40;99.90
15095;DHT22;7648;52.264;9.632;2022-11-23T21:00:51;6.40;99.90
15095;DHT22;7648;52.264;9.632;2022-11-23T21:04:53;6.30;99.90
15095;DHT22;7648;52.264;9.632;2022-11-23T21:08:56;6.30;99.90
15095;DHT22;7648;52.264;9.632;2022-11-23T21:12:58;6.40;99.90
15095;DHT22;7648;52.264;9.632;2022-11-23T21:17:18;6.50;99.90
15095;DHT22;7648;52.264;9.632;2022-11-23T21:21:20;6.60;99.90
15095;DHT22;7648;52.264;9.632;2022-11-23T21:25:24;6.80;99.90
15095;DHT22;7648;52.264;9.632;2022-11-23T21:29:26;6.90;99.90
15095;DHT22;7648;52.264;9.632;2022-11-23T21:33:28;7.10;99.90
15095;DHT22;7648;52.264;9.632;2022-11-23T21:37:30;7.40;99.90
15095;DHT22;7648;52.264;9.632;2022-11-23T21:41:34;7.50;99.90
15095;DHT22;7648;52.264;9.632;2022-11-23T21:45:36;7.70;99.90
15095;DHT22;7648;52.264;9.632;2022-11-23T21:49:38;7.70;99.90
15095;DHT22;7648;52.264;9.632;2022-11-23T21:53:40;7.70;99.90
15095;DHT22;7648;52.264;9.632;2022-11-23T21:57:43;7.60;99.90
15095;DHT22;7648;52.264;9.632;2022-11-23T22:01:45;7.70;99.90
15095;DHT22;7648;52.264;9.632;2022-11-23T22:05:54;7.70;99.90
15095;DHT22;7648;52.264;9.632;2022-11-23T22:09:56;7.60;99.90
15095;DHT22;7648;52.264;9.632;2022-11-23T22:14:01;7.60;99.90
15095;DHT22;7648;52.264;9.632;2022-11-23T22:18:04;7.50;99.90
15095;DHT22;7648;52.264;9.632;2022-11-23T22:22:06;7.50;99.90
15095;DHT22;7648;52.264;9.632;2022-11-23T22:26:09;7.50;99.90
15095;DHT22;7648;52.264;9.632;2022-11-23T22:30:13;7.40;99.90
15095;DHT22;7648;52.264;9.632;2022-11-23T22:34:16;7.40;99.90
15095;DHT22;7648;52.264;9.632;2022-11-23T22:38:18;7.30;99.90
15095;DHT22;7648;52.264;9.632;2022-11-23T22:42:20;7.20;99.90
15095;DHT22;7648;52.264;9.632;2022-11-23T22:46:24;7.20;99.90
15095;DHT22;7648;52.264;9.632;2022-11-23T22:50:26;7.10;99.90
15095;DHT22;7648;52.264;9.632;2022-11-23T22:54:27;7.10;99.90
15095;DHT22;7648;52.264;9.632;2022-11-23T22:58:30;7.00;99.90
15095;DHT22;7648;52.264;9.632;2022-11-23T23:02:34;7.00;99.90
15095;DHT22;7648;52.264;9.632;2022-11-23T23:06:36;7.00;99.90
15095;DHT22;7648;52.264;9.632;2022-11-23T23:10:38;7.00;99.90
15095;DHT22;7648;52.264;9.632;2022-11-23T23:14:40;7.00;99.90
15095;DHT22;7648;52.264;9.632;2022-11-23T23:18:44;7.00;99.90
15095;DHT22;7648;52.264;9.632;2022-11-23T23:22:46;7.00;99.90
15095;DHT22;7648;52.264;9.632;2022-11-23T23:26:48;7.00;99.90
15095;DHT22;7648;52.264;9.632;2022-11-23T23:30:50;7.00;99.90
15095;DHT22;7648;52.264;9.632;2022-11-23T23:34:53;7.00;99.90
15095;DHT22;7648;52.264;9.632;2022-11-23T23:38:55;7.00;99.90
15095;DHT22;7648;52.264;9.632;2022-11-23T23:42:58;7.00;99.90
15095;DHT22;7648;52.264;9.632;2022-11-23T23:47:00;6.90;99.90
15095;DHT22;7648;52.264;9.632;2022-11-23T23:51:05;6.90;99.90
15095;DHT22;7648;52.264;9.632;2022-11-23T23:55:08;6.90;99.90
15095;DHT22;7648;52.264;9.632;2022-11-23T23:59:10;6.90;99.90
